Time;durP1;ratioP1;P1;durP2;ratioP2;P2;SDS_P1;SDS_P2;PMS_P1;PMS_P2;Temp;Humidity;BMP_temperature;BMP_pressure;BME280_temperature;BME280_humidity;BME280_pressure;Samples;Min_cycle;Max_cycle;Signal;HPM_P1;HPM_P2
2023/04/28 00:00:05;;;;;;;5.00;1.60;;;14.90;99.90;;;;;;4975126;28;20047;-80
2023/04/28 00:02:33;;;;;;;4.40;1.70;;;14.90;99.90;;;;;;4982693;28;20046;-80
2023/04/28 00:04:59;;;;;;;4.93;1.92;;;14.90;99.90;;;;;;4974925;28;20686;-79
2023/04/28 00:07:26;;;;;;;2.28;1.85;;;14.90;99.90;;;;;;4983509;28;20129;-82
2023/04/28 00:09:53;;;;;;;5.95;1.80;;;14.90;99.90;;;;;;4979648;28;20051;-81
2023/04/28 00:12:20;;;;;;;8.55;2.67;;;14.90;99.90;;;;;;4983375;28;20058;-82
2023/04/28 00:14:46;;;;;;;6.05;1.60;;;14.90;99.90;;;;;;4985346;28;20050;-80
2023/04/28 00:17:13;;;;;;;3.60;1.65;;;14.90;99.90;;;;;;4975589;28;20050;-82
2023/04/28 00:19:40;;;;;;;3.42;1.70;;;14.90;99.90;;;;;;4990373;28;20042;-80
2023/04/28 00:22:06;;;;;;;4.53;2.00;;;14.90;99.90;;;;;;4980421;28;20157;-82
2023/04/28 00:24:35;;;;;;;4.07;2.15;;;14.90;99.90;;;;;;4984934;28;20049;-81
2023/04/28 00:27:02;;;;;;;4.05;1.70;;;14.90;99.90;;;;;;4982235;28;20057;-81
2023/04/28 00:29:29;;;;;;;4.88;1.90;;;14.90;99.90;;;;;;4982808;28;20042;-82
2023/04/28 00:31:55;;;;;;;2.45;1.70;;;14.80;99.90;;;;;;4984148;28;20047;-82
2023/04/28 00:34:22;;;;;;;4.15;1.73;;;14.90;99.90;;;;;;4981449;28;20039;-80
2023/04/28 00:36:49;;;;;;;7.97;2.58;;;14.90;99.90;;;;;;4985356;28;20055;-82
2023/04/28 00:39:17;;;;;;;3.28;2.10;;;14.80;99.90;;;;;;4983280;28;20499;-81
2023/04/28 00:41:44;;;;;;;2.63;1.83;;;14.80;99.90;;;;;;4996473;28;20053;-83
2023/04/28 00:44:10;;;;;;;4.93;2.08;;;14.80;99.90;;;;;;5002970;28;20038;-82
2023/04/28 00:46:37;;;;;;;4.78;1.90;;;14.80;99.90;;;;;;4983635;28;20048;-81
2023/04/28 00:49:04;;;;;;;2.42;2.20;;;14.80;99.90;;;;;;4983897;28;20100;-81
2023/04/28 00:51:32;;;;;;;4.95;2.33;;;14.80;99.90;;;;;;4985544;28;20513;-80
2023/04/28 00:53:59;;;;;;;4.47;2.05;;;14.80;99.90;;;;;;4988845;28;20121;-81
2023/04/28 00:56:29;;;;;;;4.30;2.15;;;14.80;99.90;;;;;;4983214;28;20061;-80
2023/04/28 00:58:57;;;;;;;;;;;14.80;99.90;;;;;;4992355;28;20042;-81
2023/04/28 01:01:23;;;;;;;3.17;1.75;;;14.80;99.90;;;;;;4984763;28;19921;-81
2023/04/28 01:03:50;;;;;;;3.78;1.60;;;14.80;99.90;;;;;;4982341;28;20486;-82
2023/04/28 01:06:19;;;;;;;5.10;2.40;;;14.80;99.90;;;;;;4986860;28;20051;-81
2023/04/28 01:08:48;;;;;;;5.95;1.88;;;14.80;99.90;;;;;;4992925;28;20042;-80
2023/04/28 01:11:16;;;;;;;2.67;1.50;;;14.80;99.90;;;;;;4983693;28;20479;-81
2023/04/28 01:13:42;;;;;;;4.90;1.85;;;14.80;99.90;;;;;;4980905;28;20410;-82
2023/04/28 01:16:10;;;;;;;1.52;1.30;;;14.80;99.90;;;;;;4994072;28;20046;-81
2023/04/28 01:18:37;;;;;;;3.78;1.40;;;14.90;99.90;;;;;;4980122;28;20423;-82
2023/04/28 01:21:04;;;;;;;2.40;1.48;;;14.90;99.90;;;;;;4977141;28;20498;-81
2023/04/28 01:23:31;;;;;;;3.72;1.20;;;15.00;99.90;;;;;;4989210;28;20046;-81
2023/04/28 01:25:57;;;;;;;2.88;1.27;;;15.10;99.90;;;;;;4978761;28;20051;-81
2023/04/28 01:28:24;;;;;;;1.25;1.10;;;15.10;99.90;;;;;;4983331;28;20042;-82
2023/04/28 01:30:51;;;;;;;1.85;1.00;;;15.20;99.90;;;;;;4979245;28;20049;-80
2023/04/28 01:33:17;;;;;;;1.60;1.23;;;15.30;99.90;;;;;;4992695;28;20051;-81
2023/04/28 01:35:44;;;;;;;2.35;1.23;;;15.30;99.90;;;;;;4978380;28;20051;-82
2023/04/28 01:38:11;;;;;;;1.92;1.20;;;15.40;99.90;;;;;;4980879;28;20055;-81
2023/04/28 01:40:37;;;;;;;2.05;1.08;;;15.40;99.90;;;;;;4988291;28;20359;-83
2023/04/28 01:43:04;;;;;;;2.33;1.17;;;15.40;99.90;;;;;;4983715;28;20054;-80
2023/04/28 01:45:31;;;;;;;3.67;1.42;;;15.40;99.90;;;;;;4979422;28;20065;-80
2023/04/28 01:47:57;;;;;;;2.83;1.35;;;15.50;99.90;;;;;;4986387;28;20057;-81
2023/04/28 01:50:24;;;;;;;2.92;1.00;;;15.50;99.90;;;;;;4978656;28;20078;-82
2023/04/28 01:52:51;;;;;;;3.28;1.25;;;15.50;99.90;;;;;;4986178;28;20081;-80
2023/04/28 01:55:17;;;;;;;4.32;1.23;;;15.50;99.90;;;;;;4981360;28;20046;-81
2023/04/28 01:57:44;;;;;;;2.45;1.13;;;15.50;99.90;;;;;;4992712;28;20105;-81
2023/04/28 02:00:11;;;;;;;3.30;1.50;;;15.50;99.90;;;;;;4989676;28;20054;-80
2023/04/28 02:02:38;;;;;;;1.73;1.27;;;15.60;99.90;;;;;;4979784;28;20046;-80
2023/04/28 02:05:05;;;;;;;2.17;1.40;;;15.50;99.90;;;;;;4984317;28;20065;-82
2023/04/28 02:07:32;;;;;;;2.42;1.40;;;15.60;99.90;;;;;;4978584;28;20072;-81
2023/04/28 02:09:58;;;;;;;2.25;1.30;;;15.60;99.90;;;;;;4982166;28;20042;-83
2023/04/28 02:12:25;;;;;;;3.13;1.40;;;15.50;99.90;;;;;;4980731;28;20046;-79
2023/04/28 02:14:52;;;;;;;1.30;1.20;;;15.60;99.90;;;;;;4985485;28;20046;-81
2023/04/28 02:17:19;;;;;;;3.10;1.15;;;15.50;99.90;;;;;;4985191;28;20058;-83
2023/04/28 02:19:45;;;;;;;3.53;1.80;;;15.60;99.90;;;;;;4979642;28;20051;-82
2023/04/28 02:22:12;;;;;;;2.50;1.23;;;15.60;99.90;;;;;;4985144;28;20069;-82
2023/04/28 02:24:39;;;;;;;4.20;1.60;;;15.60;99.90;;;;;;4982809;28;20734;-82
2023/04/28 02:27:06;;;;;;;2.03;1.20;;;15.60;99.90;;;;;;4984806;28;20046;-82
2023/04/28 02:29:32;;;;;;;3.33;1.25;;;15.50;99.90;;;;;;4984617;28;20038;-82
2023/04/28 02:31:59;;;;;;;1.88;1.13;;;15.50;99.90;;;;;;4987274;28;20054;-80
2023/04/28 02:34:26;;;;;;;5.05;2.17;;;15.50;99.90;;;;;;4995599;28;20487;-82
2023/04/28 02:36:53;;;;;;;5.13;1.40;;;15.50;99.90;;;;;;4992643;28;20049;-83
2023/04/28 02:39:25;;;;;;;2.28;1.25;;;15.50;99.90;;;;;;4996747;28;20069;-81
2023/04/28 02:41:53;;;;;;;2.67;1.52;;;15.60;99.90;;;;;;4976532;28;20049;-81
2023/04/28 02:44:20;;;;;;;3.55;1.40;;;15.50;99.90;;;;;;4986159;28;20062;-82
2023/04/28 02:46:46;;;;;;;3.22;1.48;;;15.50;99.90;;;;;;4981198;28;20507;-80
2023/04/28 02:49:13;;;;;;;1.77;1.35;;;15.50;99.90;;;;;;4981960;28;20507;-80
2023/04/28 02:51:40;;;;;;;3.53;1.40;;;15.50;99.90;;;;;;4984125;28;20065;-82
2023/04/28 02:54:07;;;;;;;2.65;1.70;;;15.50;99.90;;;;;;4991763;28;20047;-81
2023/04/28 02:56:34;;;;;;;4.30;1.63;;;15.50;99.90;;;;;;4980493;28;20038;-80
2023/04/28 02:59:01;;;;;;;4.97;1.90;;;15.50;99.90;;;;;;4982974;28;20057;-81
2023/04/28 03:01:28;;;;;;;2.00;1.60;;;15.50;99.90;;;;;;4981014;28;20391;-82
2023/04/28 03:03:55;;;;;;;3.78;1.73;;;15.40;99.90;;;;;;4985921;28;20126;-82
2023/04/28 03:06:22;;;;;;;2.55;1.92;;;15.40;99.90;;;;;;4988598;28;20485;-82
2023/04/28 03:08:48;;;;;;;2.47;1.80;;;15.40;99.90;;;;;;4983007;28;20038;-82
2023/04/28 03:11:15;;;;;;;2.47;1.95;;;15.40;99.90;;;;;;4982717;28;20093;-81
2023/04/28 03:13:42;;;;;;;3.75;1.80;;;15.30;99.90;;;;;;4977110;28;20054;-82
2023/04/28 03:16:08;;;;;;;3.72;2.30;;;15.30;99.90;;;;;;4978212;28;20399;-82
2023/04/28 03:18:35;;;;;;;3.70;2.20;;;15.30;99.90;;;;;;4973663;28;20082;-82
2023/04/28 03:21:02;;;;;;;2.22;1.83;;;15.30;99.90;;;;;;4977235;28;20146;-82
2023/04/28 03:23:28;;;;;;;2.83;2.25;;;15.30;99.90;;;;;;4977773;28;20057;-82
2023/04/28 03:25:55;;;;;;;2.95;2.00;;;15.30;99.90;;;;;;4978141;28;20055;-82
2023/04/28 03:28:22;;;;;;;2.38;2.13;;;15.20;99.90;;;;;;4980528;28;20051;-82
2023/04/28 03:30:48;;;;;;;3.45;2.25;;;15.20;99.90;;;;;;4981289;28;20051;-83
2023/04/28 03:33:15;;;;;;;2.95;2.30;;;15.20;99.90;;;;;;4979770;28;20043;-81
2023/04/28 03:35:42;;;;;;;4.53;3.00;;;15.20;99.90;;;;;;4980043;28;20043;-80
2023/04/28 03:38:08;;;;;;;3.45;2.28;;;15.20;99.90;;;;;;4978191;28;20058;-82
2023/04/28 03:40:35;;;;;;;4.68;2.97;;;15.10;99.90;;;;;;4973203;28;20495;-82
2023/04/28 03:43:02;;;;;;;5.18;2.60;;;15.10;99.90;;;;;;4977362;28;20046;-82
2023/04/28 03:45:30;;;;;;;5.47;2.58;;;15.10;99.90;;;;;;4980283;28;20133;-82
2023/04/28 03:47:57;;;;;;;2.78;2.38;;;15.10;99.90;;;;;;4972273;28;20445;-82
2023/04/28 03:50:24;;;;;;;3.03;2.25;;;15.10;99.90;;;;;;4977030;28;20047;-82
2023/04/28 03:52:52;;;;;;;3.88;2.35;;;15.10;99.90;;;;;;4976866;28;20067;-81
2023/04/28 03:55:19;;;;;;;6.15;2.72;;;15.10;99.90;;;;;;4974374;28;20047;-81
2023/04/28 03:57:45;;;;;;;5.20;3.03;;;15.00;99.90;;;;;;4973102;28;20434;-82
2023/04/28 04:00:13;;;;;;;6.22;2.60;;;15.00;99.90;;;;;;4975939;28;20065;-82
2023/04/28 04:02:40;;;;;;;5.35;2.45;;;15.00;99.90;;;;;;4979377;28;20046;-80
2023/04/28 04:05:07;;;;;;;6.88;2.58;;;15.00;99.90;;;;;;4975677;28;20498;-82
2023/04/28 04:07:34;;;;;;;6.93;2.58;;;15.00;99.90;;;;;;4976491;28;20057;-82
2023/04/28 04:10:01;;;;;;;4.10;1.92;;;14.90;99.90;;;;;;4980795;28;20053;-81
2023/04/28 04:12:30;;;;;;;5.72;2.53;;;14.90;99.90;;;;;;4984745;28;20046;-82
2023/04/28 04:14:57;;;;;;;5.38;2.10;;;14.80;99.90;;;;;;4981105;28;20050;-80
2023/04/28 04:17:24;;;;;;;4.25;1.95;;;14.70;99.90;;;;;;4977873;28;20042;-82
2023/04/28 04:19:50;;;;;;;3.60;1.90;;;14.70;99.90;;;;;;4984183;28;20109;-81
2023/04/28 04:22:17;;;;;;;1.98;1.70;;;14.60;99.90;;;;;;4978593;28;20499;-81
2023/04/28 04:24:44;;;;;;;3.88;1.95;;;14.50;99.90;;;;;;4984335;28;20050;-82
2023/04/28 04:27:10;;;;;;;7.05;2.95;;;14.50;99.90;;;;;;4984856;28;20098;-80
2023/04/28 04:29:37;;;;;;;4.47;2.65;;;14.50;99.90;;;;;;4990668;28;20042;-82
2023/04/28 04:32:04;;;;;;;3.25;2.05;;;14.50;99.90;;;;;;4993905;28;20050;-80
2023/04/28 04:34:30;;;;;;;5.03;2.28;;;14.50;99.90;;;;;;4983939;28;20051;-80
2023/04/28 04:36:57;;;;;;;2.55;2.22;;;14.40;99.90;;;;;;4984493;28;20043;-79
2023/04/28 04:39:24;;;;;;;6.75;1.70;;;14.40;99.90;;;;;;4982214;28;20061;-80
2023/04/28 04:41:51;;;;;;;7.20;2.40;;;14.40;99.90;;;;;;4986335;28;20054;-82
2023/04/28 04:44:18;;;;;;;3.05;1.85;;;14.40;99.90;;;;;;4983496;28;20050;-83
2023/04/28 04:46:45;;;;;;;4.28;1.83;;;14.40;99.90;;;;;;4982620;28;20046;-81
2023/04/28 04:49:12;;;;;;;5.40;2.10;;;14.40;99.90;;;;;;4984964;28;20043;-81
2023/04/28 04:51:39;;;;;;;6.30;2.72;;;14.40;99.90;;;;;;4980524;28;20050;-79
2023/04/28 04:54:05;;;;;;;5.03;2.17;;;14.40;99.90;;;;;;4988512;28;20038;-82
2023/04/28 04:56:32;;;;;;;4.93;2.22;;;14.40;99.90;;;;;;4981823;28;20057;-80
2023/04/28 04:58:59;;;;;;;5.07;2.15;;;14.40;99.90;;;;;;4985210;28;20065;-82
2023/04/28 05:01:26;;;;;;;4.68;2.47;;;14.50;99.90;;;;;;4988373;28;20046;-81
2023/04/28 05:03:53;;;;;;;7.05;2.35;;;14.50;99.90;;;;;;4986027;28;20047;-80
2023/04/28 05:06:20;;;;;;;2.90;1.90;;;14.50;99.90;;;;;;4989585;28;20046;-80
2023/04/28 05:08:46;;;;;;;3.20;2.25;;;14.50;99.90;;;;;;4983420;28;20047;-82
2023/04/28 05:11:13;;;;;;;4.05;2.30;;;14.50;99.90;;;;;;4991904;28;20051;-80
2023/04/28 05:13:40;;;;;;;3.50;2.10;;;14.50;99.90;;;;;;4989906;28;20534;-82
2023/04/28 05:16:06;;;;;;;2.45;2.17;;;14.50;99.90;;;;;;4989521;28;20047;-82
2023/04/28 05:18:33;;;;;;;2.40;1.88;;;14.50;99.90;;;;;;4992554;28;20104;-82
2023/04/28 05:21:00;;;;;;;4.45;2.15;;;14.50;99.90;;;;;;4987240;28;20057;-82
2023/04/28 05:23:27;;;;;;;3.95;2.28;;;14.50;99.90;;;;;;4986453;28;20051;-82
2023/04/28 05:25:53;;;;;;;4.43;2.30;;;14.50;99.90;;;;;;4993176;28;20050;-81
2023/04/28 05:28:20;;;;;;;4.18;2.90;;;14.50;99.90;;;;;;4994497;28;20046;-82
2023/04/28 05:30:47;;;;;;;5.38;2.92;;;14.50;99.90;;;;;;4988535;28;20047;-79
2023/04/28 05:33:14;;;;;;;5.55;3.28;;;14.50;99.90;;;;;;4981552;28;20047;-82
2023/04/28 05:35:41;;;;;;;4.75;3.53;;;14.50;99.90;;;;;;4988911;28;20130;-82
2023/04/28 05:38:08;;;;;;;4.10;2.20;;;14.50;99.90;;;;;;4985179;28;20110;-82
2023/04/28 05:40:34;;;;;;;4.47;2.92;;;14.50;99.90;;;;;;4986910;28;20070;-82
2023/04/28 05:43:01;;;;;;;2.65;2.40;;;14.50;99.90;;;;;;4988714;28;20078;-79
2023/04/28 05:45:28;;;;;;;4.00;2.60;;;14.50;99.90;;;;;;4988854;28;20153;-82
2023/04/28 05:47:55;;;;;;;4.95;2.42;;;14.50;99.90;;;;;;4986938;28;20134;-82
2023/04/28 05:50:22;;;;;;;3.75;2.38;;;14.50;99.90;;;;;;4983819;28;20074;-81
2023/04/28 05:52:48;;;;;;;6.82;2.30;;;14.50;99.90;;;;;;4982131;28;20050;-81
2023/04/28 05:55:15;;;;;;;3.88;2.78;;;14.50;99.90;;;;;;4982265;28;20050;-81
2023/04/28 05:57:42;;;;;;;4.18;2.58;;;14.50;99.90;;;;;;4983198;28;20153;-82
2023/04/28 06:00:18;;;;;;;6.10;2.40;;;14.40;99.90;;;;;;4980115;28;20366;-83
2023/04/28 06:02:45;;;;;;;5.20;2.53;;;14.40;99.90;;;;;;4982599;28;20486;-82
2023/04/28 06:05:12;;;;;;;3.42;2.35;;;14.40;99.90;;;;;;4988589;28;20046;-83
2023/04/28 06:07:39;;;;;;;4.25;2.65;;;14.50;99.90;;;;;;4978280;28;20074;-82
2023/04/28 06:10:06;;;;;;;3.05;2.50;;;14.50;99.90;;;;;;4978128;28;20089;-82
2023/04/28 06:12:33;;;;;;;4.00;2.67;;;14.50;99.90;;;;;;4977286;28;20570;-82
2023/04/28 06:14:59;;;;;;;4.15;2.53;;;14.50;99.90;;;;;;4977320;28;20050;-80
2023/04/28 06:17:26;;;;;;;4.90;2.03;;;14.50;99.90;;;;;;4980670;28;20134;-82
2023/04/28 06:19:54;;;;;;;3.05;2.17;;;14.50;99.90;;;;;;4981457;28;20051;-81
2023/04/28 06:22:21;;;;;;;2.92;2.28;;;14.50;99.90;;;;;;4980279;28;20606;-82
2023/04/28 06:24:47;;;;;;;7.20;2.78;;;14.40;99.90;;;;;;4980186;28;20062;-81
2023/04/28 06:27:14;;;;;;;3.45;2.47;;;14.50;99.90;;;;;;4980213;28;20526;-82
2023/04/28 06:29:41;;;;;;;4.45;3.47;;;14.50;99.90;;;;;;4980292;28;20055;-81
2023/04/28 06:32:08;;;;;;;5.90;3.08;;;14.50;99.90;;;;;;4980687;28;20047;-82
2023/04/28 06:34:36;;;;;;;3.55;2.72;;;14.50;99.90;;;;;;4978424;28;20055;-82
2023/04/28 06:37:02;;;;;;;5.78;3.40;;;14.50;99.90;;;;;;4978026;28;20058;-83
2023/04/28 06:39:29;;;;;;;5.90;2.85;;;14.50;99.90;;;;;;4978169;28;20051;-83
2023/04/28 06:41:56;;;;;;;4.65;3.30;;;14.50;99.90;;;;;;4985754;28;20046;-80
2023/04/28 06:44:23;;;;;;;3.63;2.47;;;14.50;99.90;;;;;;4987393;28;20149;-81
2023/04/28 06:46:50;;;;;;;6.80;3.13;;;14.50;99.90;;;;;;4978749;28;20055;-82
2023/04/28 06:49:17;;;;;;;6.45;3.10;;;14.50;99.90;;;;;;4983988;28;20054;-82
2023/04/28 06:51:44;;;;;;;3.63;2.63;;;14.50;99.90;;;;;;4987152;28;20050;-81
2023/04/28 06:54:11;;;;;;;3.72;2.38;;;14.50;99.90;;;;;;4975723;28;20046;-80
2023/04/28 06:56:37;;;;;;;6.03;2.42;;;14.50;99.90;;;;;;4978515;28;20051;-81
2023/04/28 06:59:04;;;;;;;3.83;2.28;;;14.50;99.90;;;;;;4979421;28;20086;-83
2023/04/28 07:01:30;;;;;;;3.42;2.40;;;14.50;99.90;;;;;;4980325;28;20059;-80
2023/04/28 07:03:57;;;;;;;3.95;2.47;;;14.50;99.90;;;;;;4980653;28;20057;-81
2023/04/28 07:06:26;;;;;;;2.60;2.22;;;14.40;99.90;;;;;;4981864;28;20405;-82
2023/04/28 07:08:53;;;;;;;2.63;2.33;;;14.50;99.90;;;;;;4980315;28;20058;-81
2023/04/28 07:11:20;;;;;;;3.13;2.28;;;14.50;99.90;;;;;;4980105;28;20051;-81
2023/04/28 07:13:48;;;;;;;5.10;2.60;;;14.50;99.90;;;;;;4981130;28;20519;-82
2023/04/28 07:16:15;;;;;;;3.42;2.40;;;14.50;99.90;;;;;;4981488;28;20043;-81
2023/04/28 07:18:42;;;;;;;3.08;2.30;;;14.40;99.90;;;;;;4981343;28;20119;-82
2023/04/28 07:21:08;;;;;;;3.38;1.88;;;14.40;99.90;;;;;;4980792;28;20412;-82
2023/04/28 07:23:37;;;;;;;2.90;2.20;;;14.40;99.90;;;;;;4979826;28;20422;-82
2023/04/28 07:26:04;;;;;;;3.33;2.17;;;14.50;99.90;;;;;;4980243;28;20057;-82
2023/04/28 07:28:31;;;;;;;3.17;2.10;;;14.50;99.90;;;;;;4979134;28;20077;-81
2023/04/28 07:30:57;;;;;;;10.00;2.85;;;14.50;99.90;;;;;;4979165;28;20068;-81
2023/04/28 07:33:24;;;;;;;3.70;1.75;;;14.50;99.90;;;;;;4975757;28;20059;-82
2023/04/28 07:35:51;;;;;;;11.15;2.50;;;14.60;99.90;;;;;;4979442;28;20162;-82
2023/04/28 07:38:19;;;;;;;4.15;2.10;;;14.60;99.90;;;;;;4980211;28;20674;-81
2023/04/28 07:40:46;;;;;;;4.20;2.53;;;14.60;99.90;;;;;;4977529;28;20042;-82
2023/04/28 07:43:13;;;;;;;5.22;1.95;;;14.60;99.90;;;;;;4977301;28;20625;-81
2023/04/28 07:45:40;;;;;;;2.95;2.10;;;14.60;99.90;;;;;;4977311;28;20055;-81
2023/04/28 07:48:07;;;;;;;5.13;1.77;;;14.60;99.90;;;;;;4978112;28;20058;-82
2023/04/28 07:50:34;;;;;;;3.63;2.05;;;14.70;99.90;;;;;;4985030;28;20130;-82
2023/04/28 07:53:01;;;;;;;4.47;1.98;;;14.70;99.90;;;;;;4972831;28;20474;-81
2023/04/28 07:55:28;;;;;;;3.47;2.10;;;14.80;99.90;;;;;;4970890;28;20368;-80
2023/04/28 07:57:55;;;;;;;2.55;1.63;;;14.70;99.90;;;;;;4973649;28;20043;-81
2023/04/28 08:00:22;;;;;;;4.38;2.00;;;14.80;99.90;;;;;;4973535;28;20054;-81
2023/04/28 08:02:49;;;;;;;3.85;1.70;;;14.80;99.90;;;;;;4973281;28;20050;-81
2023/04/28 08:05:16;;;;;;;2.97;1.67;;;14.80;99.90;;;;;;4972461;28;20062;-80
2023/04/28 08:07:43;;;;;;;2.70;1.80;;;14.80;99.90;;;;;;4974437;28;20051;-81
2023/04/28 08:10:10;;;;;;;2.65;1.90;;;14.80;99.90;;;;;;4976621;28;20047;-80
2023/04/28 08:12:37;;;;;;;2.33;2.10;;;14.80;99.90;;;;;;4973404;28;20042;-82
2023/04/28 08:15:04;;;;;;;3.50;2.30;;;14.90;99.90;;;;;;4976875;28;20050;-81
2023/04/28 08:17:31;;;;;;;3.95;2.53;;;14.90;99.90;;;;;;4979430;28;20047;-82
2023/04/28 08:19:58;;;;;;;5.10;2.05;;;14.90;99.90;;;;;;4984181;28;20122;-81
2023/04/28 08:22:25;;;;;;;4.68;2.50;;;14.90;99.90;;;;;;4979327;28;20057;-80
2023/04/28 08:24:51;;;;;;;2.78;2.03;;;15.00;99.90;;;;;;4988521;28;20105;-81
2023/04/28 08:27:18;;;;;;;4.97;2.45;;;15.00;99.90;;;;;;4980167;28;20050;-82
2023/04/28 08:29:45;;;;;;;4.32;2.55;;;15.00;99.90;;;;;;4982049;28;20101;-81
2023/04/28 08:32:12;;;;;;;3.50;2.38;;;15.00;99.90;;;;;;4978830;28;20117;-81
2023/04/28 08:34:38;;;;;;;3.08;2.63;;;15.00;99.90;;;;;;4983581;28;20410;-81
2023/04/28 08:37:05;;;;;;;4.63;2.33;;;15.00;99.90;;;;;;4976081;28;20546;-82
2023/04/28 08:39:34;;;;;;;3.03;1.90;;;15.00;99.90;;;;;;4973148;28;20058;-80
2023/04/28 08:42:04;;;;;;;4.55;2.30;;;15.00;99.90;;;;;;4982487;28;20058;-81
2023/04/28 08:44:38;;;;;;;;;;;15.00;99.90;;;;;;4980040;28;20051;-80
2023/04/28 08:47:14;;;;;;;7.45;2.55;;;15.00;99.90;;;;;;4979889;28;19922;-81
2023/04/28 08:49:42;;;;;;;3.42;2.58;;;15.00;99.90;;;;;;4979736;28;20130;-81
2023/04/28 08:52:11;;;;;;;4.63;3.05;;;15.00;99.90;;;;;;4975970;28;20118;-82
2023/04/28 08:54:41;;;;;;;6.15;2.50;;;15.10;99.90;;;;;;4980445;28;20138;-81
2023/04/28 08:57:09;;;;;;;7.38;2.97;;;15.10;99.90;;;;;;4977767;28;20194;-82
2023/04/28 08:59:40;;;;;;;3.83;2.60;;;15.10;99.90;;;;;;4979756;28;20472;-82
2023/04/28 09:02:08;;;;;;;8.60;3.80;;;15.10;99.90;;;;;;4977001;28;20047;-82
2023/04/28 09:04:35;;;;;;;4.20;3.10;;;15.20;99.90;;;;;;4981768;28;20509;-80
2023/04/28 09:07:02;;;;;;;5.88;3.13;;;15.20;99.90;;;;;;4982819;28;20093;-81
2023/04/28 09:09:30;;;;;;;3.60;3.13;;;15.20;99.90;;;;;;5022877;23;20416;-75
2023/04/28 09:12:03;;;;;;;4.32;2.70;;;15.20;99.90;;;;;;5003978;28;20042;-76
2023/04/28 09:14:32;;;;;;;5.35;3.67;;;15.20;99.90;;;;;;5001688;28;20048;-75
2023/04/28 09:17:00;;;;;;;6.57;3.22;;;15.20;99.90;;;;;;4995595;28;20046;-75
2023/04/28 09:19:37;;;;;;;3.85;3.10;;;15.20;99.90;;;;;;4992705;28;20129;-74
2023/04/28 09:22:05;;;;;;;4.05;2.72;;;15.30;99.90;;;;;;5003701;28;20054;-74
2023/04/28 09:24:51;;;;;;;5.38;3.33;;;15.30;99.90;;;;;;5001747;28;20077;-74
2023/04/28 09:27:28;;;;;;;4.25;2.88;;;15.30;99.90;;;;;;5013025;28;20536;-75
2023/04/28 09:29:55;;;;;;;5.88;2.88;;;15.40;99.90;;;;;;5008339;28;20042;-74
2023/04/28 09:32:22;;;;;;;4.65;2.40;;;15.40;99.90;;;;;;4995379;28;20046;-74
2023/04/28 09:34:52;;;;;;;5.32;2.97;;;15.50;99.90;;;;;;5008706;28;20048;-74
2023/04/28 09:37:25;;;;;;;2.95;2.35;;;15.50;99.90;;;;;;5008168;28;20051;-74
2023/04/28 09:39:53;;;;;;;4.13;2.78;;;15.60;99.90;;;;;;5013216;28;20468;-75
2023/04/28 09:42:36;;;;;;;4.97;2.80;;;15.60;99.90;;;;;;5005687;28;20054;-74
2023/04/28 09:45:08;;;;;;;7.18;2.95;;;15.70;99.90;;;;;;4995401;28;20050;-74
2023/04/28 09:47:38;;;;;;;6.68;2.70;;;15.70;99.90;;;;;;5010025;28;20072;-74
2023/04/28 09:50:09;;;;;;;4.13;2.65;;;15.80;99.90;;;;;;5003758;28;20469;-75
2023/04/28 09:52:36;;;;;;;5.03;2.72;;;15.80;99.90;;;;;;5004705;28;20054;-75
2023/04/28 09:55:07;;;;;;;5.38;2.63;;;15.80;99.90;;;;;;4993082;28;20043;-74
2023/04/28 09:57:35;;;;;;;5.13;2.60;;;15.80;99.90;;;;;;5001640;28;20046;-74
2023/04/28 10:00:07;;;;;;;3.10;2.60;;;15.80;99.90;;;;;;5008351;28;20046;-74
2023/04/28 10:02:37;;;;;;;5.90;2.90;;;15.80;99.90;;;;;;4994451;28;20137;-74
2023/04/28 10:05:08;;;;;;;4.75;3.22;;;15.80;99.90;;;;;;5008792;28;20050;-75
2023/04/28 10:07:37;;;;;;;6.07;3.33;;;15.80;99.90;;;;;;4995161;28;20046;-74
2023/04/28 10:10:06;;;;;;;5.28;3.30;;;15.90;99.90;;;;;;4988150;28;20049;-75
2023/04/28 10:12:33;;;;;;;5.82;3.03;;;15.90;99.90;;;;;;4992554;28;20042;-75
2023/04/28 10:15:01;;;;;;;3.95;2.80;;;15.90;99.90;;;;;;5007475;28;20042;-75
2023/04/28 10:17:28;;;;;;;9.73;3.33;;;15.90;99.90;;;;;;5009322;28;20046;-75
2023/04/28 10:19:56;;;;;;;4.90;3.38;;;16.00;99.90;;;;;;5007255;28;20484;-75
2023/04/28 10:22:44;;;;;;;5.28;3.92;;;15.90;99.90;;;;;;5004830;28;21523;-75
2023/04/28 10:25:11;;;;;;;7.47;4.03;;;16.00;99.90;;;;;;4991486;28;20050;-75
2023/04/28 10:27:40;;;;;;;3.85;2.85;;;16.00;99.90;;;;;;5010274;28;20527;-75
2023/04/28 10:30:21;;;;;;;4.27;3.07;;;16.10;99.90;;;;;;5006381;28;20046;-74
2023/04/28 10:33:13;;;;;;;3.33;2.63;;;16.10;99.90;;;;;;4994238;28;20494;-75
2023/04/28 10:35:44;;;;;;;5.40;2.75;;;16.20;99.90;;;;;;5005826;28;20046;-75
2023/04/28 10:38:22;;;;;;;4.35;2.50;;;16.20;99.90;;;;;;5006193;28;20053;-75
2023/04/28 10:40:53;;;;;;;4.10;2.95;;;16.30;99.90;;;;;;5005447;28;20122;-76
2023/04/28 10:43:29;;;;;;;6.95;3.00;;;16.30;99.90;;;;;;5005741;28;20513;-75
2023/04/28 10:45:58;;;;;;;4.50;2.95;;;16.40;99.90;;;;;;5004477;28;20049;-74
2023/04/28 10:48:25;;;;;;;4.60;2.50;;;16.40;99.90;;;;;;5005589;28;20125;-74
2023/04/28 10:51:04;;;;;;;5.63;2.15;;;16.50;99.90;;;;;;5010196;28;20399;-75
2023/04/28 10:53:43;;;;;;;2.87;2.20;;;16.50;99.90;;;;;;5003666;28;20068;-75
2023/04/28 10:56:22;;;;;;;5.13;2.55;;;16.60;99.90;;;;;;5012589;28;20119;-74
2023/04/28 10:58:49;;;;;;;3.45;2.40;;;16.60;99.90;;;;;;4984031;28;20042;-75
2023/04/28 11:01:33;;;;;;;3.90;2.30;;;16.80;99.90;;;;;;5002608;28;20057;-76
2023/04/28 11:04:12;;;;;;;4.68;2.40;;;16.90;99.90;;;;;;5003036;28;20053;-75
2023/04/28 11:06:41;;;;;;;4.22;2.50;;;17.10;99.90;;;;;;5005988;28;20049;-76
2023/04/28 11:09:14;;;;;;;3.92;2.40;;;17.20;99.90;;;;;;5007645;28;20058;-74
2023/04/28 11:11:59;;;;;;;3.42;2.20;;;17.30;99.90;;;;;;5001351;28;20046;-75
2023/04/28 11:14:31;;;;;;;4.35;2.05;;;17.40;99.90;;;;;;4992371;28;20069;-76
2023/04/28 11:17:01;;;;;;;3.88;2.70;;;17.50;99.90;;;;;;4992502;28;20054;-76
2023/04/28 11:19:40;;;;;;;7.03;2.30;;;17.60;99.90;;;;;;4992553;28;20053;-76
2023/04/28 11:22:15;;;;;;;8.57;2.60;;;17.60;99.90;;;;;;4982887;28;20149;-76
2023/04/28 11:24:56;;;;;;;6.80;2.50;;;17.70;99.90;;;;;;4993894;28;20045;-75
2023/04/28 11:27:26;;;;;;;4.28;1.70;;;17.70;99.90;;;;;;5012439;28;20047;-75
2023/04/28 11:29:53;;;;;;;3.58;2.17;;;17.70;99.90;;;;;;5001590;28;20050;-75
2023/04/28 11:32:34;;;;;;;7.15;2.63;;;17.70;99.90;;;;;;5003688;28;20462;-75
2023/04/28 11:35:03;;;;;;;4.82;2.25;;;17.70;99.90;;;;;;5003414;28;20049;-75
2023/04/28 11:37:30;;;;;;;15.60;3.38;;;17.80;99.90;;;;;;4989131;28;20104;-75
2023/04/28 11:39:56;;;;;;;3.92;2.10;;;17.80;99.90;;;;;;5001817;28;20138;-75
2023/04/28 11:42:25;;;;;;;4.60;2.10;;;17.90;99.90;;;;;;4994461;28;20062;-75
2023/04/28 11:44:53;;;;;;;3.97;2.50;;;18.00;99.90;;;;;;5000696;28;20050;-74
2023/04/28 11:47:31;;;;;;;4.60;2.10;;;18.10;99.90;;;;;;5001732;28;20053;-75
2023/04/28 11:49:58;;;;;;;3.08;2.00;;;18.20;99.90;;;;;;5000881;28;20046;-74
2023/04/28 11:52:26;;;;;;;2.75;1.70;;;18.30;99.90;;;;;;5001477;28;20054;-74
2023/04/28 11:54:54;;;;;;;4.60;2.08;;;18.30;99.90;;;;;;4993995;28;20081;-74
2023/04/28 11:57:22;;;;;;;2.85;1.83;;;18.40;99.90;;;;;;4983974;28;20491;-75
2023/04/28 11:59:49;;;;;;;3.70;1.70;;;18.40;99.90;;;;;;5001303;28;20085;-74
2023/04/28 12:02:26;;;;;;;4.55;2.20;;;18.50;99.90;;;;;;5003096;28;20460;-74
2023/04/28 12:04:53;;;;;;;4.18;1.80;;;18.50;99.90;;;;;;5002441;28;20137;-74
2023/04/28 12:07:20;;;;;;;7.18;2.25;;;18.60;99.90;;;;;;5000143;28;20054;-75
2023/04/28 12:10:08;;;;;;;4.28;1.90;;;18.60;99.90;;;;;;5002067;28;20050;-74
2023/04/28 12:12:35;;;;;;;6.45;1.80;;;18.60;99.90;;;;;;5001266;28;20050;-74
2023/04/28 12:15:17;;;;;;;5.60;1.58;;;18.60;99.90;;;;;;5002980;28;20108;-74
2023/04/28 12:17:47;;;;;;;2.30;1.40;;;18.60;99.90;;;;;;5005249;28;20082;-74
2023/04/28 12:20:34;;;;;;;109.30;14.50;;;18.70;99.90;;;;;;4997875;28;20132;-75
2023/04/28 12:23:01;;;;;;;10.05;2.38;;;18.80;99.90;;;;;;5006919;28;20050;-74
2023/04/28 12:25:28;;;;;;;4.50;2.22;;;18.80;99.90;;;;;;5005085;28;20438;-74
2023/04/28 12:28:03;;;;;;;6.82;1.70;;;18.90;99.90;;;;;;5004575;28;20050;-74
2023/04/28 12:30:33;;;;;;;1.70;1.23;;;19.00;99.90;;;;;;5010854;28;20049;-75
2023/04/28 12:32:59;;;;;;;1.75;1.65;;;19.10;99.90;;;;;;5007381;28;20413;-74
2023/04/28 12:35:27;;;;;;;5.07;1.70;;;19.20;99.90;;;;;;5011795;28;20042;-75
2023/04/28 12:37:55;;;;;;;1.85;1.30;;;19.20;99.90;;;;;;5009978;28;20501;-75
2023/04/28 12:40:23;;;;;;;3.33;1.42;;;19.30;99.90;;;;;;5006812;28;20074;-75
2023/04/28 12:42:50;;;;;;;4.00;1.42;;;19.40;99.90;;;;;;5007148;28;20060;-75
2023/04/28 12:45:17;;;;;;;2.97;1.38;;;19.50;99.90;;;;;;5009141;28;20069;-75
2023/04/28 12:47:43;;;;;;;1.83;1.30;;;19.50;99.90;;;;;;5010057;28;20395;-73
2023/04/28 12:50:11;;;;;;;1.67;1.10;;;19.50;99.90;;;;;;5009816;28;20129;-74
2023/04/28 12:52:37;;;;;;;1.58;1.35;;;19.60;99.90;;;;;;5012342;28;20145;-75